Time;durP1;ratioP1;P1;durP2;ratioP2;P2;SDS_P1;SDS_P2;PMS_P1;PMS_P2;Temp;Humidity;BMP_temperature;BMP_pressure;BME280_temperature;BME280_humidity;BME280_pressure;Samples;Min_cycle;Max_cycle;Signal;HPM_P1;HPM_P2
2021/12/09 00:00:37;;;;;;;55.30;29.83;;;;;;;-0.72;55.69;93264.22;4957914;28;20480;-86
2021/12/09 00:03:06;;;;;;;60.75;29.40;;;;;;;0.28;55.17;93400.63;4942229;28;20038;-85
2021/12/09 00:05:34;;;;;;;52.58;25.73;;;;;;;0.31;54.80;93402.72;4940858;28;20046;-85
2021/12/09 00:08:00;;;;;;;53.55;27.75;;;;;;;0.27;55.03;93412.13;4935932;28;20164;-85
2021/12/09 00:10:26;;;;;;;58.70;27.58;;;;;;;-0.62;56.95;93352.25;4946286;28;20483;-85
2021/12/09 00:12:51;;;;;;;61.08;26.75;;;;;;;-0.10;57.42;93410.47;4957861;28;20042;-85
2021/12/09 00:15:17;;;;;;;50.72;25.27;;;;;;;0.10;56.25;93414.19;4957937;28;20491;-85
2021/12/09 00:17:42;;;;;;;58.10;30.40;;;;;;;-1.11;56.12;93226.47;4940946;28;20132;-86
2021/12/09 00:20:09;;;;;;;55.92;26.58;;;;;;;-0.44;55.07;93289.13;4957380;28;20310;-85
2021/12/09 00:22:35;;;;;;;59.08;27.75;;;;;;;-0.35;54.95;93292.81;4933708;28;20069;-85
2021/12/09 00:25:01;;;;;;;44.85;24.63;;;;;;;0.29;54.52;93412.69;4957100;28;20125;-85
2021/12/09 00:27:27;;;;;;;51.05;26.40;;;;;;;0.23;53.87;93413.69;4959439;28;20026;-85
2021/12/09 00:29:53;;;;;;;49.50;24.58;;;;;;;0.01;53.93;93394.84;4943567;28;20034;-85
2021/12/09 00:32:19;;;;;;;50.17;25.98;;;;;;;-0.24;55.45;93414.59;4935598;28;20042;-85
2021/12/09 00:34:48;;;;;;;51.50;24.15;;;;;;;-1.62;56.13;93235.88;4960286;28;20054;-85
2021/12/09 00:37:22;;;;;;;54.65;24.52;;;;;;;-1.80;55.40;93143.19;4958984;28;20039;-85
2021/12/09 00:39:49;;;;;;;50.30;24.65;;;;;;;-2.28;54.49;93019.19;4942895;28;20121;-85
2021/12/09 00:42:16;;;;;;;62.10;25.17;;;;;;;-0.55;56.75;93392.00;4942585;28;20038;-85
2021/12/09 00:44:41;;;;;;;39.38;20.80;;;;;;;-1.18;55.37;93231.94;4947674;28;20027;-85
2021/12/09 00:47:07;;;;;;;49.85;23.00;;;;;;;-0.01;54.62;93387.22;4944331;28;20046;-86
2021/12/09 00:49:33;;;;;;;39.10;20.48;;;;;;;-1.58;54.00;93127.41;4938729;28;20042;-86
2021/12/09 00:51:59;;;;;;;40.00;22.30;;;;;;;-0.26;53.88;93325.22;4943203;28;20047;-85
2021/12/09 00:54:24;;;;;;;51.65;24.48;;;;;;;-1.49;54.40;93167.59;4959359;28;20112;-85
2021/12/09 00:56:50;;;;;;;54.33;29.63;;;;;;;-0.05;54.98;93388.78;4961597;28;20579;-85
2021/12/09 00:59:16;;;;;;;56.83;29.05;;;;;;;-0.35;55.00;93355.50;4961075;28;20053;-85
2021/12/09 01:01:41;;;;;;;53.00;26.58;;;;;;;-0.72;56.52;93346.97;4955128;28;20057;-85
2021/12/09 01:04:07;;;;;;;49.13;24.48;;;;;;;-0.93;56.61;93290.50;4962390;28;20098;-85
2021/12/09 01:06:32;;;;;;;44.35;21.30;;;;;;;-1.54;55.77;93180.63;4953894;28;20321;-86
2021/12/09 01:08:58;;;;;;;32.25;18.55;;;;;;;-0.24;55.98;93378.00;4944519;28;22091;-85
2021/12/09 01:11:23;;;;;;;32.42;16.73;;;;;;;-0.90;55.69;93256.06;4955440;28;20181;-85
2021/12/09 01:13:49;;;;;;;28.13;14.27;;;;;;;-2.20;55.30;93063.00;4955986;28;20510;-85
2021/12/09 01:16:14;;;;;;;27.02;15.40;;;;;;;-2.06;54.96;93051.09;4957958;28;20047;-85
2021/12/09 01:18:41;;;;;;;33.38;15.32;;;;;;;-2.60;55.80;93034.09;4940835;28;20115;-86
2021/12/09 01:21:07;;;;;;;32.60;16.90;;;;;;;-0.96;55.78;93260.47;4958722;28;20034;-85
2021/12/09 01:23:33;;;;;;;36.40;19.35;;;;;;;-1.98;54.59;93068.84;4962429;28;20065;-85
2021/12/09 01:26:02;;;;;;;43.15;22.35;;;;;;;-1.43;54.42;93145.72;4945007;28;20416;-85
2021/12/09 01:28:29;;;;;;;46.63;23.63;;;;;;;0.17;54.76;93391.19;4937744;28;20043;-85
2021/12/09 01:31:01;;;;;;;44.22;22.58;;;;;;;0.19;54.33;93386.50;4958803;28;20561;-85
2021/12/09 01:33:28;;;;;;;45.72;20.85;;;;;;;-1.24;54.58;93183.38;4930163;28;20029;-85
2021/12/09 01:35:53;;;;;;;49.20;22.88;;;;;;;-0.13;55.92;93394.50;4944730;28;20027;-85
2021/12/09 01:38:19;;;;;;;54.50;26.38;;;;;;;-0.72;55.96;93287.72;4945756;28;20664;-85
2021/12/09 01:40:45;;;;;;;44.20;23.33;;;;;;;-0.11;55.71;93382.75;4958304;28;20463;-85
2021/12/09 01:43:12;;;;;;;56.45;25.70;;;;;;;-0.95;56.38;93262.03;4978424;28;20195;-85
2021/12/09 01:45:37;;;;;;;55.80;27.50;;;;;;;-1.39;57.35;93222.44;4964260;28;20236;-85
2021/12/09 01:48:03;;;;;;;51.75;23.85;;;;;;;-0.32;56.84;93349.75;4964008;28;20533;-85
2021/12/09 01:50:28;;;;;;;55.60;24.35;;;;;;;-1.15;56.85;93225.41;4934925;28;20046;-85
2021/12/09 01:52:54;;;;;;;40.13;23.30;;;;;;;-1.88;58.76;93185.38;4960866;28;20027;-85
2021/12/09 01:55:20;;;;;;;44.15;21.88;;;;;;;-1.13;57.29;93231.97;4958523;28;20503;-85
2021/12/09 01:57:51;;;;;;;41.70;22.88;;;;;;;-0.64;57.56;93315.97;4960574;28;20047;-86
2021/12/09 02:00:21;;;;;;;46.28;24.30;;;;;;;-0.01;57.23;93370.75;4936704;28;20027;-86
2021/12/09 02:02:47;;;;;;;49.85;25.33;;;;;;;0.04;56.94;93379.41;4964306;28;20482;-85
2021/12/09 02:05:14;;;;;;;37.47;22.33;;;;;;;-0.19;57.68;93375.41;4938967;28;20796;-85
2021/12/09 02:07:41;;;;;;;39.45;20.42;;;;;;;-0.13;57.73;93343.03;4962823;28;20049;-85
2021/12/09 02:10:08;;;;;;;41.70;17.80;;;;;;;-0.24;58.03;93351.09;4959972;28;20512;-85
2021/12/09 02:12:34;;;;;;;35.70;18.73;;;;;;;0.04;57.57;93353.25;4960983;28;20042;-85
2021/12/09 02:15:00;;;;;;;33.15;18.75;;;;;;;-0.63;58.76;93335.03;4959571;28;20026;-86
2021/12/09 02:17:31;;;;;;;34.90;19.75;;;;;;;-0.26;57.87;93353.97;4960840;28;20054;-86
2021/12/09 02:19:59;;;;;;;34.50;18.88;;;;;;;0.28;57.45;93370.03;4959622;28;20187;-85
2021/12/09 02:22:27;;;;;;;29.83;17.60;;;;;;;0.03;57.75;93356.13;4941041;28;20042;-85
2021/12/09 02:24:54;;;;;;;32.78;16.80;;;;;;;0.30;56.99;93377.63;4962366;28;20065;-85
2021/12/09 02:27:22;;;;;;;35.28;16.13;;;;;;;0.48;56.53;93389.41;4942630;28;20816;-85
2021/12/09 02:29:48;;;;;;;41.78;16.70;;;;;;;-0.67;57.15;93263.44;4960146;28;20034;-85
2021/12/09 02:32:14;;;;;;;41.83;17.63;;;;;;;0.08;57.41;93370.00;4960068;28;20701;-85
2021/12/09 02:34:39;;;;;;;34.30;18.83;;;;;;;0.13;57.91;93377.84;4962652;28;20061;-85
2021/12/09 02:37:10;;;;;;;27.60;15.73;;;;;;;0.08;58.11;93377.06;4961580;28;20038;-85
2021/12/09 02:39:35;;;;;;;38.20;17.17;;;;;;;-0.63;58.00;93285.41;4961907;28;20483;-86
2021/12/09 02:42:07;;;;;;;36.80;18.85;;;;;;;-1.95;57.65;93039.66;4946010;28;20036;-86
2021/12/09 02:44:32;;;;;;;41.78;21.70;;;;;;;0.38;57.05;93353.56;4943352;28;20046;-85
2021/12/09 02:46:58;;;;;;;35.13;17.92;;;;;;;-1.02;58.07;93227.56;4962415;28;20496;-86
2021/12/09 02:49:29;;;;;;;31.77;17.13;;;;;;;-0.76;58.78;93281.44;4936462;28;20043;-85
2021/12/09 02:51:59;;;;;;;37.15;19.85;;;;;;;-1.46;58.43;93135.81;4961068;28;20399;-85
2021/12/09 02:54:32;;;;;;;35.33;18.38;;;;;;;-1.40;56.92;93051.31;4943454;28;20129;-86
2021/12/09 02:57:06;;;;;;;32.42;18.45;;;;;;;0.44;55.71;93325.59;4962345;28;20034;-85
2021/12/09 02:59:32;;;;;;;32.08;19.05;;;;;;;0.70;56.27;93387.31;4932553;28;20074;-85
2021/12/09 03:02:01;;;;;;;35.20;18.67;;;;;;;0.47;57.06;93393.06;4962659;28;20035;-86
2021/12/09 03:04:52;;;;;;;38.10;19.02;;;;;;;0.01;58.39;93392.22;4958614;28;20097;-86
2021/12/09 03:07:27;;;;;;;35.10;18.13;;;;;;;-1.45;62.13;93393.75;4925105;28;20081;-85
2021/12/09 03:09:59;;;;;;;29.73;16.60;;;;;;;-2.66;63.44;93168.63;4942393;28;20035;-85
2021/12/09 03:12:27;;;;;;;26.90;17.45;;;;;;;-1.08;63.81;93387.78;4947478;28;20018;-85
2021/12/09 03:14:54;;;;;;;34.28;17.52;;;;;;;-0.45;62.00;93378.97;4944579;28;20412;-85
2021/12/09 03:17:20;;;;;;;35.97;17.55;;;;;;;-0.20;60.77;93380.91;4964987;28;20043;-86
2021/12/09 03:19:46;;;;;;;34.42;17.08;;;;;;;0.01;59.56;93379.91;4962054;28;20078;-85
2021/12/09 03:22:13;;;;;;;39.80;16.90;;;;;;;-1.20;59.25;93181.03;4959131;28;20521;-85
2021/12/09 03:24:38;;;;;;;36.95;18.25;;;;;;;-0.62;58.78;93279.91;4964158;28;20127;-85
2021/12/09 03:27:04;;;;;;;32.70;17.15;;;;;;;-0.33;57.63;93269.00;4960465;28;20026;-85
2021/12/09 03:29:31;;;;;;;42.13;22.00;;;;;;;0.45;57.91;93398.56;4961164;28;20039;-85
2021/12/09 03:32:10;;;;;;;41.85;20.40;;;;;;;-0.68;57.74;93217.50;4943403;28;20035;-86
2021/12/09 03:34:38;;;;;;;41.17;21.45;;;;;;;0.76;56.96;93396.75;4961993;28;20050;-85
2021/12/09 03:37:07;;;;;;;49.42;22.63;;;;;;;0.03;57.04;93304.63;4961692;28;20097;-85
2021/12/09 03:39:36;;;;;;;49.00;25.98;;;;;;;0.73;56.90;93392.84;4958657;28;20022;-85
2021/12/09 03:42:03;;;;;;;44.80;22.50;;;;;;;0.62;57.29;93386.03;4958615;28;20037;-85
2021/12/09 03:44:30;;;;;;;50.50;25.30;;;;;;;0.11;57.63;93324.22;4958148;28;20039;-86
2021/12/09 03:46:59;;;;;;;51.17;24.10;;;;;;;0.05;58.13;93338.38;4940308;28;20035;-85
2021/12/09 03:49:25;;;;;;;54.45;26.88;;;;;;;0.76;57.00;93379.22;4942561;28;20049;-85
2021/12/09 03:51:54;;;;;;;59.83;27.33;;;;;;;-0.34;57.26;93252.56;4960370;28;20046;-86
2021/12/09 03:54:21;;;;;;;61.40;30.67;;;;;;;0.48;57.66;93378.94;4957233;28;20322;-85
2021/12/09 03:56:46;;;;;;;64.32;31.77;;;;;;;-0.08;56.28;93256.78;4961916;28;20032;-86
2021/12/09 03:59:12;;;;;;;64.35;33.03;;;;;;;0.72;55.58;93374.78;4962610;28;20034;-85
2021/12/09 04:01:42;;;;;;;77.63;37.90;;;;;;;-0.85;56.25;93169.91;4943267;28;20049;-85
2021/12/09 04:04:08;;;;;;;72.20;38.17;;;;;;;-0.41;55.89;93236.34;4943306;28;20129;-86
2021/12/09 04:06:33;;;;;;;73.38;37.08;;;;;;;-0.22;55.97;93268.78;4943460;28;20050;-85
2021/12/09 04:09:00;;;;;;;65.93;35.13;;;;;;;0.46;56.59;93392.28;4961473;28;20031;-85
2021/12/09 04:11:26;;;;;;;71.03;33.60;;;;;;;0.26;57.49;93387.81;4950208;28;20050;-87
2021/12/09 04:13:52;;;;;;;70.72;32.58;;;;;;;-1.60;57.40;93077.31;4938334;28;20134;-86
2021/12/09 04:16:18;;;;;;;65.15;32.95;;;;;;;-2.36;59.34;93069.16;4962257;28;20046;-84
2021/12/09 04:18:44;;;;;;;75.07;36.58;;;;;;;-1.13;58.13;93189.41;4958249;28;20522;-86
2021/12/09 04:21:10;;;;;;;68.45;33.83;;;;;;;0.02;58.23;93391.94;4959752;28;20050;-86
2021/12/09 04:23:41;;;;;;;69.97;34.03;;;;;;;-1.48;58.91;93146.50;4944186;28;20038;-84
2021/12/09 04:26:08;;;;;;;70.35;35.60;;;;;;;-0.27;59.24;93357.63;4945317;28;20035;-86
2021/12/09 04:28:34;;;;;;;78.75;38.78;;;;;;;-0.11;58.59;93317.41;4959870;28;20563;-86
2021/12/09 04:31:01;;;;;;;90.20;38.72;;;;;;;-1.28;57.54;93085.00;4944541;28;20047;-86
2021/12/09 04:33:29;;;;;;;71.93;35.53;;;;;;;0.83;56.72;93397.28;4944066;28;20030;-86
2021/12/09 04:35:55;;;;;;;84.80;34.97;;;;;;;0.69;56.13;93344.66;4934146;28;20027;-86
2021/12/09 04:38:21;;;;;;;61.85;30.00;;;;;;;1.04;56.15;93418.97;4945010;28;20526;-86
2021/12/09 04:40:46;;;;;;;58.53;29.00;;;;;;;0.82;56.17;93373.97;4958599;28;20100;-86
2021/12/09 04:43:12;;;;;;;35.72;19.70;;;;;;;0.09;57.67;93365.56;4963513;28;20042;-86
2021/12/09 04:45:39;;;;;;;38.17;16.42;;;;;;;0.09;59.89;93423.09;4955885;28;20050;-85
2021/12/09 04:48:05;;;;;;;38.42;19.38;;;;;;;-1.03;60.03;93254.69;4959168;28;20149;-85
2021/12/09 04:50:31;;;;;;;35.95;17.42;;;;;;;0.38;60.10;93418.97;4958360;28;20463;-85
2021/12/09 04:52:57;;;;;;;37.97;18.60;;;;;;;0.62;58.14;93385.22;4960896;28;20035;-86
2021/12/09 04:55:23;;;;;;;30.17;16.02;;;;;;;-0.14;59.49;93393.72;4945959;28;20044;-86
2021/12/09 04:57:49;;;;;;;34.03;16.13;;;;;;;-0.35;61.83;93412.19;4944599;28;20114;-86
2021/12/09 05:00:18;;;;;;;32.40;16.33;;;;;;;-0.91;63.50;93432.78;4963347;28;20023;-85
2021/12/09 05:05:15;;;;;;;71.40;32.25;;;;;;;-0.31;62.66;93434.97;4960028;28;20085;-85
2021/12/09 05:07:42;;;;;;;87.57;37.72;;;;;;;-1.47;63.12;93366.38;4959573;28;20922;-85
2021/12/09 05:10:07;;;;;;;68.05;33.58;;;;;;;-0.85;63.94;93417.94;4963155;28;20045;-85
2021/12/09 05:12:33;;;;;;;86.30;39.20;;;;;;;-0.63;62.80;93416.00;4942356;28;20428;-86
2021/12/09 05:14:58;;;;;;;66.38;35.08;;;;;;;-0.63;62.29;93389.88;4961389;28;20066;-86
2021/12/09 05:17:24;;;;;;;64.97;35.22;;;;;;;-0.70;59.50;93280.41;4963281;28;20129;-86
2021/12/09 05:19:49;;;;;;;67.07;32.45;;;;;;;-0.46;58.53;93309.47;4944868;28;20105;-85
2021/12/09 05:22:15;;;;;;;70.68;32.60;;;;;;;0.25;59.27;93428.06;4946044;28;20121;-85
2021/12/09 05:24:41;;;;;;;49.13;22.13;;;;;;;-1.31;62.34;93375.84;4961220;28;20570;-86
2021/12/09 05:27:10;;;;;;;35.15;16.40;;;;;;;-0.49;62.78;93442.44;4966175;28;20030;-85
2021/12/09 05:29:40;;;;;;;29.13;14.80;;;;;;;-0.27;62.80;93441.25;4979747;28;20038;-85
2021/12/09 05:32:12;;;;;;;29.80;15.25;;;;;;;-1.38;62.59;93269.13;4958919;28;20038;-85
2021/12/09 05:34:46;;;;;;;22.85;12.90;;;;;;;-0.36;63.04;93423.69;4964874;28;20043;-86
2021/12/09 05:37:15;;;;;;;24.65;12.77;;;;;;;-0.12;62.10;93433.47;4962227;28;20039;-86
2021/12/09 05:39:41;;;;;;;26.00;14.30;;;;;;;0.07;61.41;93425.16;4961398;28;20060;-85
2021/12/09 05:42:09;;;;;;;30.65;15.55;;;;;;;-0.45;61.70;93389.44;4953007;28;20449;-85
2021/12/09 05:44:35;;;;;;;27.35;13.40;;;;;;;-1.03;61.78;93267.75;4960796;28;20042;-86
2021/12/09 05:47:05;;;;;;;32.85;15.30;;;;;;;-2.09;62.05;93174.03;4946152;28;20042;-86
2021/12/09 05:49:37;;;;;;;28.13;14.15;;;;;;;0.17;61.29;93422.56;4959868;28;20926;-85
2021/12/09 05:52:04;;;;;;;31.27;13.98;;;;;;;-2.01;61.56;93173.59;4931376;28;20038;-86
2021/12/09 05:54:30;;;;;;;33.63;16.27;;;;;;;-1.49;64.38;93384.88;4961165;28;20650;-86
2021/12/09 05:56:56;;;;;;;37.70;17.02;;;;;;;-1.09;64.00;93345.22;4961847;28;20058;-86
2021/12/09 05:59:22;;;;;;;26.83;14.35;;;;;;;-1.89;65.22;93320.13;4961767;28;20478;-85
2021/12/09 06:01:47;;;;;;;38.70;15.73;;;;;;;-3.28;66.16;93116.28;4964195;28;20038;-86
2021/12/09 06:04:13;;;;;;;32.88;14.90;;;;;;;-2.63;64.02;93081.47;4940084;28;20555;-85
2021/12/09 06:06:39;;;;;;;34.67;16.33;;;;;;;-2.50;62.96;93073.22;4961187;28;20904;-86
2021/12/09 06:09:07;;;;;;;37.70;15.80;;;;;;;-0.58;62.48;93392.50;4959210;28;20028;-85
2021/12/09 06:11:34;;;;;;;32.70;16.77;;;;;;;-0.32;63.34;93438.59;4961050;28;20047;-86
2021/12/09 06:13:59;;;;;;;26.20;13.07;;;;;;;-0.05;61.27;93390.63;4963808;28;21074;-84
2021/12/09 06:16:25;;;;;;;36.25;16.75;;;;;;;0.02;60.16;93370.22;4937715;28;20095;-86
2021/12/09 06:18:52;;;;;;;25.42;15.63;;;;;;;-0.41;62.17;93445.34;4964226;28;20030;-85
2021/12/09 06:21:19;;;;;;;31.20;14.82;;;;;;;0.16;60.63;93428.84;4943703;28;20038;-86
2021/12/09 06:23:45;;;;;;;28.77;15.10;;;;;;;-0.32;60.41;93372.50;4954627;28;20062;-85
2021/12/09 06:26:11;;;;;;;34.22;16.13;;;;;;;-0.62;62.44;93386.19;4965994;28;20570;-86
2021/12/09 06:28:38;;;;;;;38.33;17.33;;;;;;;-0.19;61.59;93374.66;4960209;28;20153;-86
2021/12/09 06:31:04;;;;;;;48.75;23.17;;;;;;;-0.04;61.96;93466.16;4963404;28;20671;-86
2021/12/09 06:33:30;;;;;;;52.53;23.65;;;;;;;-2.09;61.15;93140.16;4945709;28;20048;-85
2021/12/09 06:35:56;;;;;;;50.05;24.15;;;;;;;-0.62;61.51;93344.41;4936372;28;20472;-86
2021/12/09 06:38:22;;;;;;;53.67;25.58;;;;;;;-0.57;61.40;93366.13;4943732;28;20602;-84
2021/12/09 06:40:47;;;;;;;55.30;25.23;;;;;;;-0.75;61.95;93350.09;4938726;28;20040;-85
2021/12/09 06:43:13;;;;;;;49.45;24.67;;;;;;;0.32;61.07;93459.22;4936237;28;20043;-86
2021/12/09 06:45:40;;;;;;;59.65;27.73;;;;;;;0.20;61.17;93440.38;4937977;28;20076;-86
2021/12/09 06:48:06;;;;;;;57.20;25.02;;;;;;;-2.41;63.06;93178.50;4945185;28;20023;-86
2021/12/09 06:50:31;;;;;;;51.13;23.85;;;;;;;-1.14;63.69;93341.81;4940382;28;20392;-86
2021/12/09 06:52:57;;;;;;;47.28;23.90;;;;;;;-1.92;64.62;93305.00;4944381;28;20507;-85
2021/12/09 06:55:22;;;;;;;45.38;23.35;;;;;;;-0.58;64.55;93429.09;4943058;28;20035;-86
2021/12/09 06:57:49;;;;;;;52.97;22.40;;;;;;;0.18;62.45;93445.06;4942136;28;20031;-86
2021/12/09 07:00:24;;;;;;;62.33;25.52;;;;;;;0.37;61.08;93451.41;4939660;28;21532;-86
2021/12/09 07:02:49;;;;;;;;;;;;;;;0.48;61.05;93445.16;4945426;28;20066;-86
2021/12/09 07:05:19;;;;;;;53.25;23.33;;;;;;;0.76;59.37;93455.13;4934815;28;20017;-86
2021/12/09 07:07:46;;;;;;;53.33;23.67;;;;;;;0.11;59.64;93368.69;4940822;28;20046;-86
2021/12/09 07:10:13;;;;;;;47.38;24.73;;;;;;;0.35;60.16;93412.41;4937946;28;20051;-86
2021/12/09 07:12:39;;;;;;;58.03;26.58;;;;;;;0.56;59.98;93431.53;4940602;28;20070;-87
2021/12/09 07:15:07;;;;;;;63.10;27.92;;;;;;;-0.98;61.18;93279.00;4941351;28;20031;-86
2021/12/09 07:17:33;;;;;;;58.58;27.23;;;;;;;0.49;60.42;93431.03;4941196;28;20085;-86
2021/12/09 07:19:59;;;;;;;55.78;25.58;;;;;;;0.18;59.12;93330.00;4938845;28;21418;-86
2021/12/09 07:22:24;;;;;;;47.10;23.90;;;;;;;0.12;59.69;93354.56;4940746;28;20039;-86
2021/12/09 07:24:50;;;;;;;53.17;24.92;;;;;;;-0.21;59.29;93296.50;4944271;28;20083;-86
2021/12/09 07:27:16;;;;;;;60.70;24.55;;;;;;;-0.22;60.98;93391.59;4935624;28;20035;-85
2021/12/09 07:29:43;;;;;;;53.38;23.35;;;;;;;0.73;58.75;93424.25;4949986;28;20072;-85
2021/12/09 07:32:09;;;;;;;53.15;26.75;;;;;;;-0.20;60.92;93433.19;4942541;28;20042;-86
2021/12/09 07:34:34;;;;;;;66.72;29.90;;;;;;;-0.56;61.80;93374.75;4919921;28;20048;-86
2021/12/09 07:37:04;;;;;;;73.70;33.75;;;;;;;-0.40;62.07;93373.00;4917567;28;20051;-85
2021/12/09 07:39:30;;;;;;;94.03;38.45;;;;;;;-0.02;61.02;93353.50;4936301;28;20503;-86
2021/12/09 07:41:56;;;;;;;81.20;35.25;;;;;;;-1.17;61.48;93259.59;4911346;29;20035;-86
2021/12/09 07:44:24;;;;;;;79.60;35.10;;;;;;;0.45;60.75;93427.34;4919823;28;20102;-85
2021/12/09 07:46:51;;;;;;;88.72;35.13;;;;;;;-0.19;59.51;93272.72;4913604;28;20513;-86
2021/12/09 07:49:16;;;;;;;84.85;33.95;;;;;;;0.54;58.09;93338.66;4915302;28;20070;-85
2021/12/09 07:51:42;;;;;;;75.22;31.15;;;;;;;-0.23;61.45;93429.22;4919910;28;20155;-86
2021/12/09 07:54:09;;;;;;;70.72;31.38;;;;;;;0.07;61.65;93438.22;4922654;28;20024;-85
2021/12/09 07:56:35;;;;;;;67.05;32.25;;;;;;;0.60;60.53;93429.19;4921016;28;20544;-86
2021/12/09 07:59:00;;;;;;;81.00;36.05;;;;;;;-0.17;59.10;93279.25;4909665;28;20170;-84
2021/12/09 08:01:26;;;;;;;80.35;34.72;;;;;;;-0.54;61.88;93409.25;4910340;28;20122;-85
2021/12/09 08:03:52;;;;;;;86.85;33.80;;;;;;;0.24;60.83;93397.75;4922067;29;20023;-86
2021/12/09 08:06:17;;;;;;;79.00;35.58;;;;;;;-0.30;61.13;93332.00;4926644;28;20043;-86
2021/12/09 08:08:43;;;;;;;73.05;33.17;;;;;;;-0.96;60.82;93209.03;4929053;28;20404;-85
2021/12/09 08:11:09;;;;;;;73.60;33.13;;;;;;;-0.73;60.90;93307.06;4922457;28;20379;-86
2021/12/09 08:13:34;;;;;;;73.18;33.65;;;;;;;-2.82;64.22;93092.25;4922247;28;20023;-86
2021/12/09 08:16:03;;;;;;;74.88;31.90;;;;;;;-1.83;63.71;93214.88;4923893;29;20030;-86
2021/12/09 08:18:31;;;;;;;86.95;36.47;;;;;;;-2.88;65.03;93106.25;4926127;28;20047;-85
2021/12/09 08:20:59;;;;;;;85.28;37.72;;;;;;;-0.81;64.78;93411.16;4934438;28;20147;-86
2021/12/09 08:23:26;;;;;;;74.53;34.75;;;;;;;-2.17;65.65;93212.78;4918567;29;20059;-85
2021/12/09 08:25:53;;;;;;;73.57;33.75;;;;;;;-2.87;65.29;93084.41;4920332;29;20562;-85
2021/12/09 08:28:19;;;;;;;85.07;34.13;;;;;;;-0.39;64.68;93445.13;4918441;29;20134;-85
2021/12/09 08:30:45;;;;;;;65.47;29.40;;;;;;;-1.26;66.71;93404.59;4919013;28;20035;-84
2021/12/09 08:33:10;;;;;;;74.85;33.15;;;;;;;-2.44;67.59;93241.50;4919047;28;20405;-85
2021/12/09 08:35:36;;;;;;;75.45;31.98;;;;;;;-1.29;70.06;93448.66;4956467;28;20039;-85
2021/12/09 08:38:08;;;;;;;77.75;33.80;;;;;;;-0.59;68.05;93430.91;4955317;28;20045;-86
2021/12/09 08:40:35;;;;;;;62.70;30.67;;;;;;;-1.87;66.52;93187.75;4958867;28;20027;-85
2021/12/09 08:43:00;;;;;;;70.93;27.63;;;;;;;-1.28;67.92;93336.25;4941434;28;20027;-86
2021/12/09 08:45:26;;;;;;;89.68;36.35;;;;;;;-1.37;69.02;93426.44;4954385;28;20563;-85
2021/12/09 08:47:52;;;;;;;77.15;33.50;;;;;;;-2.46;70.39;93228.72;4959783;28;20035;-86
2021/12/09 08:50:22;;;;;;;79.43;30.88;;;;;;;-1.34;70.68;93410.28;4943316;28;20536;-85
2021/12/09 08:52:50;;;;;;;73.80;34.35;;;;;;;-1.18;68.42;93331.09;4936702;28;20408;-87
2021/12/09 08:55:17;;;;;;;72.47;29.02;;;;;;;-1.85;68.69;93258.63;4954513;28;20042;-87
2021/12/09 08:57:44;;;;;;;72.10;30.67;;;;;;;-0.88;68.24;93361.81;4940381;28;20050;-86
2021/12/09 09:00:13;;;;;;;71.45;34.30;;;;;;;-0.48;66.91;93407.44;4932844;28;20052;-85
2021/12/09 09:02:42;;;;;;;70.38;30.65;;;;;;;-0.44;68.24;93408.50;4955591;28;20085;-86
2021/12/09 09:05:10;;;;;;;75.53;32.75;;;;;;;-0.09;66.17;93406.81;4951969;28;20042;-85
2021/12/09 09:07:37;;;;;;;75.07;31.23;;;;;;;-1.00;69.69;93408.97;4952594;28;20737;-86
2021/12/09 09:10:05;;;;;;;65.63;30.50;;;;;;;-1.21;68.61;93242.88;4932805;28;20126;-85
2021/12/09 09:12:33;;;;;;;77.63;31.13;;;;;;;0.24;65.64;93405.59;4957203;28;20043;-86
2021/12/09 09:14:59;;;;;;;76.95;32.25;;;;;;;-1.48;69.98;93346.53;4961541;28;20037;-85
2021/12/09 09:17:24;;;;;;;80.93;34.00;;;;;;;-0.81;68.05;93314.56;4977692;28;20046;-84
2021/12/09 09:19:49;;;;;;;74.13;31.17;;;;;;;-1.59;66.75;93120.63;4975943;28;20035;-84
2021/12/09 09:22:15;;;;;;;82.32;34.85;;;;;;;-0.60;65.77;93232.66;4952547;28;20049;-84
2021/12/09 09:24:41;;;;;;;99.78;41.17;;;;;;;-0.29;65.53;93328.34;4959349;28;20053;-85
2021/12/09 09:27:07;;;;;;;70.70;33.67;;;;;;;-0.64;67.85;93307.34;4955413;28;20623;-85
2021/12/09 09:29:34;;;;;;;77.55;30.50;;;;;;;-0.44;65.57;93273.44;4956509;28;20120;-85
2021/12/09 09:32:00;;;;;;;76.28;29.92;;;;;;;-1.06;66.52;93203.78;4936687;28;20466;-85
2021/12/09 09:34:26;;;;;;;93.05;36.53;;;;;;;-0.61;66.59;93330.31;4938055;28;20637;-85
2021/12/09 09:36:52;;;;;;;74.45;33.15;;;;;;;-0.75;69.39;93339.66;4955705;28;20496;-84
2021/12/09 09:39:18;;;;;;;81.47;34.58;;;;;;;-0.20;66.71;93339.88;4957208;28;20073;-85
2021/12/09 09:42:35;;;;;;;234.75;71.78;;;;;;;-0.15;67.88;93355.56;4950956;28;20320;-84
2021/12/09 09:44:54;;;;;;;101.35;41.45;;;;;;;0.16;66.44;93369.47;4961176;28;20089;-85
2021/12/09 09:47:25;;;;;;;84.35;32.95;;;;;;;0.06;66.34;93366.84;4942267;28;20046;-85
2021/12/09 09:49:52;;;;;;;77.28;32.22;;;;;;;0.28;65.08;93353.56;4939834;28;20077;-85
2021/12/09 09:52:19;;;;;;;98.90;39.35;;;;;;;0.41;64.71;93324.25;4964982;28;20692;-84
2021/12/09 09:54:45;;;;;;;92.93;37.55;;;;;;;0.61;64.65;93334.72;4963196;28;20037;-84
2021/12/09 09:57:13;;;;;;;82.78;35.60;;;;;;;0.18;65.25;93296.00;4934906;28;20034;-86
2021/12/09 09:59:42;;;;;;;97.07;37.25;;;;;;;0.80;64.70;93320.03;4957581;28;20066;-85
2021/12/09 10:02:10;;;;;;;102.78;40.50;;;;;;;-1.77;68.26;93113.25;4957933;28;20083;-85
2021/12/09 10:04:48;;;;;;;92.47;35.00;;;;;;;0.11;68.61;93300.69;4958964;28;20502;-85
2021/12/09 10:07:17;;;;;;;76.25;37.45;;;;;;;0.62;66.19;93319.81;4944514;28;20054;-87
2021/12/09 10:09:43;;;;;;;75.47;31.00;;;;;;;-0.64;66.14;93107.03;4958315;28;20064;-85
2021/12/09 10:12:09;;;;;;;68.65;31.05;;;;;;;0.23;67.69;93277.72;4959073;28;20526;-84
2021/12/09 10:14:36;;;;;;;83.20;31.48;;;;;;;0.75;65.34;93283.41;4944839;28;20050;-86
2021/12/09 10:17:17;;;;;;;77.57;33.95;;;;;;;0.10;66.06;93262.53;4935818;28;20591;-85
2021/12/09 10:19:56;;;;;;;80.65;34.88;;;;;;;0.73;65.85;93303.06;4950337;28;20666;-85
2021/12/09 10:22:28;;;;;;;80.10;35.10;;;;;;;0.40;64.96;93220.66;4962417;28;20554;-85
2021/12/09 10:24:55;;;;;;;65.10;30.52;;;;;;;0.62;63.55;93202.84;4941844;28;20035;-85
2021/12/09 10:27:32;;;;;;;58.50;27.38;;;;;;;1.28;62.77;93304.72;4961721;28;20046;-85
2021/12/09 10:30:14;;;;;;;63.65;28.25;;;;;;;1.17;62.33;93303.22;4959142;28;20041;-84
2021/12/09 10:32:41;;;;;;;60.78;27.05;;;;;;;1.82;60.01;93293.47;4943386;28;22224;-86
2021/12/09 10:35:09;;;;;;;61.05;28.38;;;;;;;0.73;60.83;93161.72;4962966;28;20054;-86
2021/12/09 10:37:37;;;;;;;71.35;29.55;;;;;;;1.94;60.08;93278.25;4958959;28;20041;-86
2021/12/09 10:40:12;;;;;;;63.10;28.88;;;;;;;1.16;59.06;93123.53;4962466;28;20666;-86
2021/12/09 10:42:43;;;;;;;78.28;31.60;;;;;;;2.01;58.98;93252.50;4960256;28;20070;-86
2021/12/09 10:45:23;;;;;;;78.43;33.70;;;;;;;2.00;59.58;93287.66;4944176;28;20070;-86
2021/12/09 10:48:16;;;;;;;69.82;30.88;;;;;;;1.87;58.32;93206.97;4945587;28;20099;-86
2021/12/09 10:51:03;;;;;;;56.97;28.08;;;;;;;1.48;58.98;93209.53;4946843;28;20030;-85
2021/12/09 10:53:45;;;;;;;67.78;29.88;;;;;;;1.26;60.25;93224.88;4956190;28;20035;-85
2021/12/09 10:56:11;;;;;;;59.50;28.23;;;;;;;0.68;60.80;93178.22;4953776;28;20501;-86
2021/12/09 10:58:40;;;;;;;67.18;29.52;;;;;;;0.67;60.09;93095.53;4960317;28;20579;-84
2021/12/09 11:01:12;;;;;;;68.57;29.65;;;;;;;1.17;61.20;93214.97;4962351;28;20045;-85
2021/12/09 11:03:45;;;;;;;69.90;26.95;;;;;;;0.38;61.58;93089.38;4929440;28;20054;-85
2021/12/09 11:06:17;;;;;;;65.55;28.40;;;;;;;0.28;62.53;93100.66;4948273;28;20039;-85
2021/12/09 11:08:43;;;;;;;69.10;30.23;;;;;;;1.20;63.38;93258.16;4963104;28;20057;-85
2021/12/09 11:11:16;;;;;;;84.22;34.00;;;;;;;1.96;62.45;93255.94;4946857;28;20035;-85
2021/12/09 11:13:44;;;;;;;75.70;31.48;;;;;;;-0.03;60.89;93001.63;4960544;28;20042;-85
2021/12/09 11:16:11;;;;;;;69.10;31.77;;;;;;;-0.43;61.72;92924.94;4959364;28;20039;-85
2021/12/09 11:18:40;;;;;;;77.63;30.95;;;;;;;2.21;60.72;93241.84;4960399;28;20038;-85
2021/12/09 11:21:19;;;;;;;70.05;30.38;;;;;;;2.57;59.01;93225.78;4957899;28;20578;-85
2021/12/09 11:23:50;;;;;;;75.30;31.92;;;;;;;2.58;59.04;93237.88;4957562;28;20038;-84